sensor_id;sensor_type;location;lat;lon;timestamp;temperature;humidity
4910;DHT22;2470;49.868;8.660;2024-01-16T00:01:22;0.60;99.90
4910;DHT22;2470;49.868;8.660;2024-01-16T00:03:47;0.60;99.90
4910;DHT22;2470;49.868;8.660;2024-01-16T00:06:13;0.50;99.90
4910;DHT22;2470;49.868;8.660;2024-01-16T00:08:38;0.50;99.90
4910;DHT22;2470;49.868;8.660;2024-01-16T00:11:04;0.50;99.90
4910;DHT22;2470;49.868;8.660;2024-01-16T00:13:30;0.50;99.90
4910;DHT22;2470;49.868;8.660;2024-01-16T00:15:55;0.50;99.90
4910;DHT22;2470;49.868;8.660;2024-01-16T00:18:23;0.50;99.90
4910;DHT22;2470;49.868;8.660;2024-01-16T00:20:49;0.50;99.90
4910;DHT22;2470;49.868;8.660;2024-01-16T00:23:14;0.40;99.90
4910;DHT22;2470;49.868;8.660;2024-01-16T00:25:40;0.40;99.90
4910;DHT22;2470;49.868;8.660;2024-01-16T00:28:06;0.40;99.90
4910;DHT22;2470;49.868;8.660;2024-01-16T00:30:32;0.40;99.90
4910;DHT22;2470;49.868;8.660;2024-01-16T00:32:58;0.40;99.90
4910;DHT22;2470;49.868;8.660;2024-01-16T00:35:24;0.50;99.90
4910;DHT22;2470;49.868;8.660;2024-01-16T00:37:50;0.50;99.90
4910;DHT22;2470;49.868;8.660;2024-01-16T00:40:15;0.50;99.90
4910;DHT22;2470;49.868;8.660;2024-01-16T00:42:41;0.50;99.90
4910;DHT22;2470;49.868;8.660;2024-01-16T00:45:07;0.50;99.90
4910;DHT22;2470;49.868;8.660;2024-01-16T00:47:32;0.50;99.90
4910;DHT22;2470;49.868;8.660;2024-01-16T00:49:58;0.50;99.90
4910;DHT22;2470;49.868;8.660;2024-01-16T00:52:26;0.40;99.90
4910;DHT22;2470;49.868;8.660;2024-01-16T00:54:51;0.40;99.90
4910;DHT22;2470;49.868;8.660;2024-01-16T00:57:17;0.50;99.90
4910;DHT22;2470;49.868;8.660;2024-01-16T00:59:45;0.50;99.90
4910;DHT22;2470;49.868;8.660;2024-01-16T01:02:11;0.60;99.90
4910;DHT22;2470;49.868;8.660;2024-01-16T01:04:37;0.60;99.90
4910;DHT22;2470;49.868;8.660;2024-01-16T01:07:03;0.70;99.90
4910;DHT22;2470;49.868;8.660;2024-01-16T01:09:28;0.60;99.90
4910;DHT22;2470;49.868;8.660;2024-01-16T01:11:54;0.60;99.90
4910;DHT22;2470;49.868;8.660;2024-01-16T01:14:19;0.60;99.90
4910;DHT22;2470;49.868;8.660;2024-01-16T01:16:45;0.60;99.90
4910;DHT22;2470;49.868;8.660;2024-01-16T01:19:10;0.60;99.90
4910;DHT22;2470;49.868;8.660;2024-01-16T01:21:36;0.60;99.90
4910;DHT22;2470;49.868;8.660;2024-01-16T01:24:01;0.50;99.90
4910;DHT22;2470;49.868;8.660;2024-01-16T01:26:27;0.40;99.90
4910;DHT22;2470;49.868;8.660;2024-01-16T01:28:52;0.40;99.90
4910;DHT22;2470;49.868;8.660;2024-01-16T01:31:18;0.30;99.90
4910;DHT22;2470;49.868;8.660;2024-01-16T01:33:43;0.30;99.90
4910;DHT22;2470;49.868;8.660;2024-01-16T01:36:09;0.30;99.90
4910;DHT22;2470;49.868;8.660;2024-01-16T01:38:35;0.30;99.90
4910;DHT22;2470;49.868;8.660;2024-01-16T01:41:00;0.30;99.90
4910;DHT22;2470;49.868;8.660;2024-01-16T01:43:26;0.20;99.90
4910;DHT22;2470;49.868;8.660;2024-01-16T01:46:18;0.20;99.90
4910;DHT22;2470;49.868;8.660;2024-01-16T01:48:46;0.10;99.90
4910;DHT22;2470;49.868;8.660;2024-01-16T01:51:14;0.10;99.90
4910;DHT22;2470;49.868;8.660;2024-01-16T01:53:44;0.00;99.90
4910;DHT22;2470;49.868;8.660;2024-01-16T01:56:12;0.00;99.90
4910;DHT22;2470;49.868;8.660;2024-01-16T01:58:41;0.00;99.90
4910;DHT22;2470;49.868;8.660;2024-01-16T02:01:08;0.00;99.90
4910;DHT22;2470;49.868;8.660;2024-01-16T02:03:42;0.00;99.90
4910;DHT22;2470;49.868;8.660;2024-01-16T02:06:08;0.10;99.90
4910;DHT22;2470;49.868;8.660;2024-01-16T02:08:34;0.10;99.90
4910;DHT22;2470;49.868;8.660;2024-01-16T02:11:00;0.20;99.90
4910;DHT22;2470;49.868;8.660;2024-01-16T02:13:26;0.20;99.90
4910;DHT22;2470;49.868;8.660;2024-01-16T02:15:51;0.20;99.90
4910;DHT22;2470;49.868;8.660;2024-01-16T02:18:17;0.10;99.90
4910;DHT22;2470;49.868;8.660;2024-01-16T02:20:43;0.20;99.90
4910;DHT22;2470;49.868;8.660;2024-01-16T02:23:10;0.10;99.90
4910;DHT22;2470;49.868;8.660;2024-01-16T02:25:42;0.10;99.90
4910;DHT22;2470;49.868;8.660;2024-01-16T02:28:08;0.10;99.90
4910;DHT22;2470;49.868;8.660;2024-01-16T02:30:34;0.20;99.90
4910;DHT22;2470;49.868;8.660;2024-01-16T02:32:59;0.20;99.90
4910;DHT22;2470;49.868;8.660;2024-01-16T02:35:25;0.20;99.90
4910;DHT22;2470;49.868;8.660;2024-01-16T02:37:51;0.30;99.90
4910;DHT22;2470;49.868;8.660;2024-01-16T02:40:16;0.30;99.90
4910;DHT22;2470;49.868;8.660;2024-01-16T02:42:42;0.40;99.90
4910;DHT22;2470;49.868;8.660;2024-01-16T02:45:08;0.40;99.90
4910;DHT22;2470;49.868;8.660;2024-01-16T02:47:34;0.50;99.90
4910;DHT22;2470;49.868;8.660;2024-01-16T02:50:00;0.60;99.90
4910;DHT22;2470;49.868;8.660;2024-01-16T02:52:25;0.60;99.90
4910;DHT22;2470;49.868;8.660;2024-01-16T02:54:51;0.60;99.90
4910;DHT22;2470;49.868;8.660;2024-01-16T02:57:16;0.50;99.90
4910;DHT22;2470;49.868;8.660;2024-01-16T02:59:45;0.40;99.90
4910;DHT22;2470;49.868;8.660;2024-01-16T03:02:11;0.30;99.90
4910;DHT22;2470;49.868;8.660;2024-01-16T03:04:37;0.30;99.90
4910;DHT22;2470;49.868;8.660;2024-01-16T03:07:03;0.30;99.90
4910;DHT22;2470;49.868;8.660;2024-01-16T03:09:29;0.30;99.90
4910;DHT22;2470;49.868;8.660;2024-01-16T03:11:54;0.20;99.90
4910;DHT22;2470;49.868;8.660;2024-01-16T03:14:20;0.20;99.90
4910;DHT22;2470;49.868;8.660;2024-01-16T03:16:45;0.30;99.90
4910;DHT22;2470;49.868;8.660;2024-01-16T03:19:12;0.30;99.90
4910;DHT22;2470;49.868;8.660;2024-01-16T03:21:38;0.40;99.90
4910;DHT22;2470;49.868;8.660;2024-01-16T03:24:04;0.40;99.90
4910;DHT22;2470;49.868;8.660;2024-01-16T03:26:31;0.40;99.90
4910;DHT22;2470;49.868;8.660;2024-01-16T03:28:56;0.50;99.90
4910;DHT22;2470;49.868;8.660;2024-01-16T03:31:22;0.50;99.90
4910;DHT22;2470;49.868;8.660;2024-01-16T03:33:47;0.40;99.90
4910;DHT22;2470;49.868;8.660;2024-01-16T03:36:13;0.40;99.90
4910;DHT22;2470;49.868;8.660;2024-01-16T03:38:39;0.50;99.90
4910;DHT22;2470;49.868;8.660;2024-01-16T03:41:05;0.50;99.90
4910;DHT22;2470;49.868;8.660;2024-01-16T03:43:33;0.50;99.90
4910;DHT22;2470;49.868;8.660;2024-01-16T03:45:59;0.50;99.90
4910;DHT22;2470;49.868;8.660;2024-01-16T03:48:25;0.50;99.90
4910;DHT22;2470;49.868;8.660;2024-01-16T03:50:51;0.50;99.90
4910;DHT22;2470;49.868;8.660;2024-01-16T03:53:16;0.50;99.90
4910;DHT22;2470;49.868;8.660;2024-01-16T03:55:42;0.50;99.90
4910;DHT22;2470;49.868;8.660;2024-01-16T03:58:07;0.50;99.90
4910;DHT22;2470;49.868;8.660;2024-01-16T04:00:33;0.50;99.90
4910;DHT22;2470;49.868;8.660;2024-01-16T04:02:59;0.50;99.90
4910;DHT22;2470;49.868;8.660;2024-01-16T04:05:24;0.50;99.90
4910;DHT22;2470;49.868;8.660;2024-01-16T04:07:50;0.60;99.90
4910;DHT22;2470;49.868;8.660;2024-01-16T04:10:15;0.50;99.90
4910;DHT22;2470;49.868;8.660;2024-01-16T04:12:41;0.50;99.90
4910;DHT22;2470;49.868;8.660;2024-01-16T04:15:07;0.50;99.90
4910;DHT22;2470;49.868;8.660;2024-01-16T04:17:32;0.50;99.90
4910;DHT22;2470;49.868;8.660;2024-01-16T04:19:58;0.40;99.90
4910;DHT22;2470;49.868;8.660;2024-01-16T04:22:23;0.40;99.90
4910;DHT22;2470;49.868;8.660;2024-01-16T04:24:49;0.40;99.90
4910;DHT22;2470;49.868;8.660;2024-01-16T04:27:14;0.40;99.90
4910;DHT22;2470;49.868;8.660;2024-01-16T04:29:40;0.40;99.90
4910;DHT22;2470;49.868;8.660;2024-01-16T04:32:05;0.40;99.90
4910;DHT22;2470;49.868;8.660;2024-01-16T04:34:31;0.30;99.90
4910;DHT22;2470;49.868;8.660;2024-01-16T04:36:56;0.30;99.90
4910;DHT22;2470;49.868;8.660;2024-01-16T04:39:22;0.30;99.90
4910;DHT22;2470;49.868;8.660;2024-01-16T04:41:51;0.30;99.90
4910;DHT22;2470;49.868;8.660;2024-01-16T04:44:17;0.30;99.90
4910;DHT22;2470;49.868;8.660;2024-01-16T04:46:42;0.30;99.90
4910;DHT22;2470;49.868;8.660;2024-01-16T04:49:08;0.30;99.90
4910;DHT22;2470;49.868;8.660;2024-01-16T04:51:34;0.30;99.90
4910;DHT22;2470;49.868;8.660;2024-01-16T04:53:59;0.20;99.90
4910;DHT22;2470;49.868;8.660;2024-01-16T04:56:25;0.20;99.90
4910;DHT22;2470;49.868;8.660;2024-01-16T04:58:50;0.30;99.90
4910;DHT22;2470;49.868;8.660;2024-01-16T05:01:17;0.30;99.90
4910;DHT22;2470;49.868;8.660;2024-01-16T05:03:43;0.30;99.90
4910;DHT22;2470;49.868;8.660;2024-01-16T05:06:15;0.30;99.90
4910;DHT22;2470;49.868;8.660;2024-01-16T05:08:41;0.30;99.90
4910;DHT22;2470;49.868;8.660;2024-01-16T05:11:07;0.30;99.90
4910;DHT22;2470;49.868;8.660;2024-01-16T05:13:33;0.30;99.90
4910;DHT22;2470;49.868;8.660;2024-01-16T05:15:58;0.30;99.90
4910;DHT22;2470;49.868;8.660;2024-01-16T05:18:24;0.30;99.90
4910;DHT22;2470;49.868;8.660;2024-01-16T05:20:49;0.40;99.90
4910;DHT22;2470;49.868;8.660;2024-01-16T05:23:14;0.40;99.90
4910;DHT22;2470;49.868;8.660;2024-01-16T05:25:40;0.40;99.90
4910;DHT22;2470;49.868;8.660;2024-01-16T05:28:05;0.40;99.90
4910;DHT22;2470;49.868;8.660;2024-01-16T05:30:32;0.40;99.90
4910;DHT22;2470;49.868;8.660;2024-01-16T05:32:58;0.40;99.90
4910;DHT22;2470;49.868;8.660;2024-01-16T05:35:29;0.30;99.90
4910;DHT22;2470;49.868;8.660;2024-01-16T05:37:55;0.30;99.90
4910;DHT22;2470;49.868;8.660;2024-01-16T05:40:21;0.20;99.90
4910;DHT22;2470;49.868;8.660;2024-01-16T05:42:48;0.20;99.90
4910;DHT22;2470;49.868;8.660;2024-01-16T05:45:14;0.20;99.90
4910;DHT22;2470;49.868;8.660;2024-01-16T05:47:39;0.20;99.90
4910;DHT22;2470;49.868;8.660;2024-01-16T05:50:05;0.20;99.90
4910;DHT22;2470;49.868;8.660;2024-01-16T05:52:31;0.30;99.90
4910;DHT22;2470;49.868;8.660;2024-01-16T05:54:56;0.30;99.90
4910;DHT22;2470;49.868;8.660;2024-01-16T05:57:23;0.30;99.90
4910;DHT22;2470;49.868;8.660;2024-01-16T05:59:49;0.30;99.90
4910;DHT22;2470;49.868;8.660;2024-01-16T06:02:14;0.30;99.90
4910;DHT22;2470;49.868;8.660;2024-01-16T06:04:40;0.20;99.90
4910;DHT22;2470;49.868;8.660;2024-01-16T06:07:06;0.20;99.90
4910;DHT22;2470;49.868;8.660;2024-01-16T06:09:43;0.20;99.90
4910;DHT22;2470;49.868;8.660;2024-01-16T06:12:08;0.20;99.90
4910;DHT22;2470;49.868;8.660;2024-01-16T06:14:34;0.20;99.90
4910;DHT22;2470;49.868;8.660;2024-01-16T06:17:00;0.10;99.90
4910;DHT22;2470;49.868;8.660;2024-01-16T06:19:26;0.10;99.90
4910;DHT22;2470;49.868;8.660;2024-01-16T06:21:51;0.10;99.90
4910;DHT22;2470;49.868;8.660;2024-01-16T06:24:17;0.10;99.90
4910;DHT22;2470;49.868;8.660;2024-01-16T06:26:42;0.10;99.90
4910;DHT22;2470;49.868;8.660;2024-01-16T06:29:08;0.10;99.90
4910;DHT22;2470;49.868;8.660;2024-01-16T06:31:34;0.10;99.90
4910;DHT22;2470;49.868;8.660;2024-01-16T06:33:59;0.20;99.90
4910;DHT22;2470;49.868;8.660;2024-01-16T06:36:25;0.20;99.90
4910;DHT22;2470;49.868;8.660;2024-01-16T06:38:50;0.20;99.90
4910;DHT22;2470;49.868;8.660;2024-01-16T06:41:16;0.10;99.90
4910;DHT22;2470;49.868;8.660;2024-01-16T06:43:41;0.10;99.90
4910;DHT22;2470;49.868;8.660;2024-01-16T06:46:07;0.10;99.90
4910;DHT22;2470;49.868;8.660;2024-01-16T06:48:35;0.00;99.90
4910;DHT22;2470;49.868;8.660;2024-01-16T06:51:01;0.00;99.90
4910;DHT22;2470;49.868;8.660;2024-01-16T06:53:26;0.10;99.90
4910;DHT22;2470;49.868;8.660;2024-01-16T06:55:52;0.00;99.90
4910;DHT22;2470;49.868;8.660;2024-01-16T06:58:17;0.10;99.90
4910;DHT22;2470;49.868;8.660;2024-01-16T07:00:43;0.00;99.90
4910;DHT22;2470;49.868;8.660;2024-01-16T07:03:08;0.10;99.90
4910;DHT22;2470;49.868;8.660;2024-01-16T07:05:34;0.00;99.90
4910;DHT22;2470;49.868;8.660;2024-01-16T07:07:59;0.00;99.90
4910;DHT22;2470;49.868;8.660;2024-01-16T07:10:25;0.00;99.90
4910;DHT22;2470;49.868;8.660;2024-01-16T07:12:51;0.00;99.90
4910;DHT22;2470;49.868;8.660;2024-01-16T07:15:17;0.00;99.90
4910;DHT22;2470;49.868;8.660;2024-01-16T07:17:43;0.00;99.90
4910;DHT22;2470;49.868;8.660;2024-01-16T07:20:09;0.00;99.90
4910;DHT22;2470;49.868;8.660;2024-01-16T07:22:37;0.00;99.90
4910;DHT22;2470;49.868;8.660;2024-01-16T07:25:02;-0.10;99.90
4910;DHT22;2470;49.868;8.660;2024-01-16T07:27:28;-0.10;99.90
4910;DHT22;2470;49.868;8.660;2024-01-16T07:29:53;-0.10;99.90
4910;DHT22;2470;49.868;8.660;2024-01-16T07:32:19;-0.10;99.90
4910;DHT22;2470;49.868;8.660;2024-01-16T07:34:44;0.00;99.90
4910;DHT22;2470;49.868;8.660;2024-01-16T07:37:10;0.00;99.90
4910;DHT22;2470;49.868;8.660;2024-01-16T07:39:35;0.10;99.90
4910;DHT22;2470;49.868;8.660;2024-01-16T07:42:01;0.10;99.90
4910;DHT22;2470;49.868;8.660;2024-01-16T07:44:27;0.20;99.90
4910;DHT22;2470;49.868;8.660;2024-01-16T07:46:52;0.20;99.90
4910;DHT22;2470;49.868;8.660;2024-01-16T07:49:18;0.30;99.90
4910;DHT22;2470;49.868;8.660;2024-01-16T07:51:43;0.30;99.90
4910;DHT22;2470;49.868;8.660;2024-01-16T07:54:09;0.30;99.90
4910;DHT22;2470;49.868;8.660;2024-01-16T07:56:36;0.30;99.90
4910;DHT22;2470;49.868;8.660;2024-01-16T07:59:02;0.30;99.90
4910;DHT22;2470;49.868;8.660;2024-01-16T08:01:28;0.40;99.90
4910;DHT22;2470;49.868;8.660;2024-01-16T08:03:56;0.40;99.90
4910;DHT22;2470;49.868;8.660;2024-01-16T08:06:22;0.40;99.90
4910;DHT22;2470;49.868;8.660;2024-01-16T08:08:49;0.40;99.90
4910;DHT22;2470;49.868;8.660;2024-01-16T08:11:15;0.30;99.90
4910;DHT22;2470;49.868;8.660;2024-01-16T08:13:40;0.40;99.90
4910;DHT22;2470;49.868;8.660;2024-01-16T08:16:06;0.40;99.90
4910;DHT22;2470;49.868;8.660;2024-01-16T08:18:32;0.40;99.90
4910;DHT22;2470;49.868;8.660;2024-01-16T08:20:57;0.50;99.90
4910;DHT22;2470;49.868;8.660;2024-01-16T08:23:23;0.50;99.90
4910;DHT22;2470;49.868;8.660;2024-01-16T08:25:48;0.50;99.90
4910;DHT22;2470;49.868;8.660;2024-01-16T08:28:14;0.50;99.90
4910;DHT22;2470;49.868;8.660;2024-01-16T08:30:40;0.50;99.90
4910;DHT22;2470;49.868;8.660;2024-01-16T08:33:06;0.50;99.90
4910;DHT22;2470;49.868;8.660;2024-01-16T08:35:32;0.50;99.90
4910;DHT22;2470;49.868;8.660;2024-01-16T08:37:58;0.50;99.90
4910;DHT22;2470;49.868;8.660;2024-01-16T08:40:24;0.50;99.90
4910;DHT22;2470;49.868;8.660;2024-01-16T08:42:49;0.50;99.90
4910;DHT22;2470;49.868;8.660;2024-01-16T08:45:20;0.60;99.90
4910;DHT22;2470;49.868;8.660;2024-01-16T08:47:46;0.60;99.90
4910;DHT22;2470;49.868;8.660;2024-01-16T08:50:11;0.60;99.90
4910;DHT22;2470;49.868;8.660;2024-01-16T08:52:37;0.70;99.90
4910;DHT22;2470;49.868;8.660;2024-01-16T08:55:03;0.70;99.90
4910;DHT22;2470;49.868;8.660;2024-01-16T08:57:29;0.80;99.90
4910;DHT22;2470;49.868;8.660;2024-01-16T08:59:54;0.80;99.90
4910;DHT22;2470;49.868;8.660;2024-01-16T09:02:20;0.90;99.90
4910;DHT22;2470;49.868;8.660;2024-01-16T09:04:45;0.90;99.90
4910;DHT22;2470;49.868;8.660;2024-01-16T09:07:12;0.90;99.90
4910;DHT22;2470;49.868;8.660;2024-01-16T09:09:41;0.90;99.90
4910;DHT22;2470;49.868;8.660;2024-01-16T09:12:08;0.90;99.90
4910;DHT22;2470;49.868;8.660;2024-01-16T09:14:34;1.00;99.90
4910;DHT22;2470;49.868;8.660;2024-01-16T09:16:59;1.10;99.90
4910;DHT22;2470;49.868;8.660;2024-01-16T09:19:25;1.20;99.90
4910;DHT22;2470;49.868;8.660;2024-01-16T09:21:50;1.30;99.90
4910;DHT22;2470;49.868;8.660;2024-01-16T09:24:16;1.40;99.90
4910;DHT22;2470;49.868;8.660;2024-01-16T09:26:41;1.40;99.90
4910;DHT22;2470;49.868;8.660;2024-01-16T09:29:08;1.50;99.90
4910;DHT22;2470;49.868;8.660;2024-01-16T09:31:34;1.50;99.90
4910;DHT22;2470;49.868;8.660;2024-01-16T09:34:01;1.50;99.90
4910;DHT22;2470;49.868;8.660;2024-01-16T09:36:26;1.60;99.90
4910;DHT22;2470;49.868;8.660;2024-01-16T09:38:52;1.60;99.90
4910;DHT22;2470;49.868;8.660;2024-01-16T09:41:17;1.70;99.90
4910;DHT22;2470;49.868;8.660;2024-01-16T09:43:44;1.80;99.90
4910;DHT22;2470;49.868;8.660;2024-01-16T09:46:11;1.90;99.90
4910;DHT22;2470;49.868;8.660;2024-01-16T09:48:37;1.80;99.90
4910;DHT22;2470;49.868;8.660;2024-01-16T09:51:03;1.70;99.90
4910;DHT22;2470;49.868;8.660;2024-01-16T09:53:28;1.70;99.90
4910;DHT22;2470;49.868;8.660;2024-01-16T09:55:55;1.70;99.90
4910;DHT22;2470;49.868;8.660;2024-01-16T09:58:23;1.70;99.90
4910;DHT22;2470;49.868;8.660;2024-01-16T10:00:49;1.70;99.90
4910;DHT22;2470;49.868;8.660;2024-01-16T10:03:15;1.60;99.90
4910;DHT22;2470;49.868;8.660;2024-01-16T10:05:42;1.60;99.90
4910;DHT22;2470;49.868;8.660;2024-01-16T10:08:08;1.60;99.90
4910;DHT22;2470;49.868;8.660;2024-01-16T10:10:34;1.60;99.90
4910;DHT22;2470;49.868;8.660;2024-01-16T10:12:59;1.70;99.90
4910;DHT22;2470;49.868;8.660;2024-01-16T10:15:25;1.70;99.90
4910;DHT22;2470;49.868;8.660;2024-01-16T10:17:50;1.70;99.90
4910;DHT22;2470;49.868;8.660;2024-01-16T10:20:16;1.80;99.90
4910;DHT22;2470;49.868;8.660;2024-01-16T10:22:56;1.90;99.90
4910;DHT22;2470;49.868;8.660;2024-01-16T10:25:24;1.90;99.90
4910;DHT22;2470;49.868;8.660;2024-01-16T10:28:02;2.00;99.90
4910;DHT22;2470;49.868;8.660;2024-01-16T10:30:29;1.90;99.90
4910;DHT22;2470;49.868;8.660;2024-01-16T10:32:54;1.90;99.90
4910;DHT22;2470;49.868;8.660;2024-01-16T10:35:20;1.90;99.90
4910;DHT22;2470;49.868;8.660;2024-01-16T10:37:53;1.90;99.90
4910;DHT22;2470;49.868;8.660;2024-01-16T10:40:20;2.00;99.90
4910;DHT22;2470;49.868;8.660;2024-01-16T10:42:56;2.00;99.90
4910;DHT22;2470;49.868;8.660;2024-01-16T10:45:22;2.00;99.90
4910;DHT22;2470;49.868;8.660;2024-01-16T10:47:48;2.00;99.90
4910;DHT22;2470;49.868;8.660;2024-01-16T10:50:13;2.00;99.90
4910;DHT22;2470;49.868;8.660;2024-01-16T10:52:48;2.00;99.90
4910;DHT22;2470;49.868;8.660;2024-01-16T10:55:45;2.10;99.90
4910;DHT22;2470;49.868;8.660;2024-01-16T10:58:14;2.00;99.90
4910;DHT22;2470;49.868;8.660;2024-01-16T11:00:41;2.10;99.90
4910;DHT22;2470;49.868;8.660;2024-01-16T11:03:12;2.10;99.90
4910;DHT22;2470;49.868;8.660;2024-01-16T11:05:42;2.10;99.90
4910;DHT22;2470;49.868;8.660;2024-01-16T11:08:08;2.30;99.90
4910;DHT22;2470;49.868;8.660;2024-01-16T11:10:36;2.40;99.90
4910;DHT22;2470;49.868;8.660;2024-01-16T11:13:04;2.40;99.90
4910;DHT22;2470;49.868;8.660;2024-01-16T11:15:31;2.50;99.90
4910;DHT22;2470;49.868;8.660;2024-01-16T11:17:58;2.40;99.90
4910;DHT22;2470;49.868;8.660;2024-01-16T11:20:25;2.50;99.90
4910;DHT22;2470;49.868;8.660;2024-01-16T11:22:51;2.60;99.90
4910;DHT22;2470;49.868;8.660;2024-01-16T11:25:19;2.70;99.90
4910;DHT22;2470;49.868;8.660;2024-01-16T11:27:46;2.70;99.90
4910;DHT22;2470;49.868;8.660;2024-01-16T11:30:30;2.70;99.90
4910;DHT22;2470;49.868;8.660;2024-01-16T11:32:56;2.80;99.90
4910;DHT22;2470;49.868;8.660;2024-01-16T11:35:32;2.80;99.90
4910;DHT22;2470;49.868;8.660;2024-01-16T11:38:17;2.60;99.90
4910;DHT22;2470;49.868;8.660;2024-01-16T11:40:44;2.50;99.90
4910;DHT22;2470;49.868;8.660;2024-01-16T11:45:57;2.60;99.90
4910;DHT22;2470;49.868;8.660;2024-01-16T11:48:24;2.60;99.90
4910;DHT22;2470;49.868;8.660;2024-01-16T11:50:50;2.80;99.90
4910;DHT22;2470;49.868;8.660;2024-01-16T11:53:35;2.90;99.90
4910;DHT22;2470;49.868;8.660;2024-01-16T12:01:53;3.20;99.90
4910;DHT22;2470;49.868;8.660;2024-01-16T12:04:22;3.40;99.90
4910;DHT22;2470;49.868;8.660;2024-01-16T12:06:58;3.50;99.90
4910;DHT22;2470;49.868;8.660;2024-01-16T12:09:27;3.80;99.90
4910;DHT22;2470;49.868;8.660;2024-01-16T12:12:00;3.80;99.90
4910;DHT22;2470;49.868;8.660;2024-01-16T12:14:29;3.60;99.90
4910;DHT22;2470;49.868;8.660;2024-01-16T12:17:08;3.40;99.90
4910;DHT22;2470;49.868;8.660;2024-01-16T12:19:35;3.20;99.90
4910;DHT22;2470;49.868;8.660;2024-01-16T12:22:00;3.10;99.90
4910;DHT22;2470;49.868;8.660;2024-01-16T12:24:26;3.10;99.90
4910;DHT22;2470;49.868;8.660;2024-01-16T12:26:51;3.30;99.90
4910;DHT22;2470;49.868;8.660;2024-01-16T12:29:18;3.60;99.90
4910;DHT22;2470;49.868;8.660;2024-01-16T12:31:43;4.10;99.90
4910;DHT22;2470;49.868;8.660;2024-01-16T12:34:09;4.40;99.90
4910;DHT22;2470;49.868;8.660;2024-01-16T12:36:36;4.70;99.90
4910;DHT22;2470;49.868;8.660;2024-01-16T12:39:03;5.10;99.90
4910;DHT22;2470;49.868;8.660;2024-01-16T12:41:41;5.60;99.90
4910;DHT22;2470;49.868;8.660;2024-01-16T12:44:06;6.10;98.40
4910;DHT22;2470;49.868;8.660;2024-01-16T12:46:32;6.20;97.20
4910;DHT22;2470;49.868;8.660;2024-01-16T12:49:04;6.40;96.70
4910;DHT22;2470;49.868;8.660;2024-01-16T12:51:31;6.50;95.30
4910;DHT22;2470;49.868;8.660;2024-01-16T12:54:14;6.50;95.80
4910;DHT22;2470;49.868;8.660;2024-01-16T12:56:40;6.80;95.60
4910;DHT22;2470;49.868;8.660;2024-01-16T12:59:12;6.90;96.90
4910;DHT22;2470;49.868;8.660;2024-01-16T13:01:43;7.30;97.70
4910;DHT22;2470;49.868;8.660;2024-01-16T13:04:12;7.80;93.20
4910;DHT22;2470;49.868;8.660;2024-01-16T13:06:41;7.60;91.30
4910;DHT22;2470;49.868;8.660;2024-01-16T13:09:11;7.70;90.90
4910;DHT22;2470;49.868;8.660;2024-01-16T13:11:54;8.10;90.40
4910;DHT22;2470;49.868;8.660;2024-01-16T13:14:24;7.90;86.80
4910;DHT22;2470;49.868;8.660;2024-01-16T13:16:51;7.50;87.00
4910;DHT22;2470;49.868;8.660;2024-01-16T13:19:18;7.50;88.90
4910;DHT22;2470;49.868;8.660;2024-01-16T13:21:44;8.00;87.30
4910;DHT22;2470;49.868;8.660;2024-01-16T13:24:10;8.50;87.80
4910;DHT22;2470;49.868;8.660;2024-01-16T13:26:36;9.00;85.70
4910;DHT22;2470;49.868;8.660;2024-01-16T13:29:02;10.00;83.10
4910;DHT22;2470;49.868;8.660;2024-01-16T13:31:29;11.10;77.10
4910;DHT22;2470;49.868;8.660;2024-01-16T13:33:54;11.20;75.60
4910;DHT22;2470;49.868;8.660;2024-01-16T13:36:22;11.90;73.30
4910;DHT22;2470;49.868;8.660;2024-01-16T13:38:48;12.50;69.60
4910;DHT22;2470;49.868;8.660;2024-01-16T13:41:14;12.80;67.60
4910;DHT22;2470;49.868;8.660;2024-01-16T13:43:40;13.00;65.80
4910;DHT22;2470;49.868;8.660;2024-01-16T13:46:06;12.70;63.20
4910;DHT22;2470;49.868;8.660;2024-01-16T13:48:33;12.10;62.90
4910;DHT22;2470;49.868;8.660;2024-01-16T13:50:59;12.50;63.10
4910;DHT22;2470;49.868;8.660;2024-01-16T13:53:24;12.80;62.40
4910;DHT22;2470;49.868;8.660;2024-01-16T13:55:50;12.60;61.70
4910;DHT22;2470;49.868;8.660;2024-01-16T13:58:15;12.30;61.10
4910;DHT22;2470;49.868;8.660;2024-01-16T14:00:41;11.60;61.90
4910;DHT22;2470;49.868;8.660;2024-01-16T14:03:06;10.60;62.50
4910;DHT22;2470;49.868;8.660;2024-01-16T14:05:32;9.80;65.80
4910;DHT22;2470;49.868;8.660;2024-01-16T14:07:58;9.20;67.50
4910;DHT22;2470;49.868;8.660;2024-01-16T14:10:23;9.30;68.60
4910;DHT22;2470;49.868;8.660;2024-01-16T14:12:50;9.00;68.70
4910;DHT22;2470;49.868;8.660;2024-01-16T14:15:18;8.00;69.30
4910;DHT22;2470;49.868;8.660;2024-01-16T14:17:52;7.00;71.90
4910;DHT22;2470;49.868;8.660;2024-01-16T14:20:19;6.50;74.10
4910;DHT22;2470;49.868;8.660;2024-01-16T14:22:48;6.10;76.40
4910;DHT22;2470;49.868;8.660;2024-01-16T14:25:13;5.80;78.10
4910;DHT22;2470;49.868;8.660;2024-01-16T14:27:43;5.60;79.20
4910;DHT22;2470;49.868;8.660;2024-01-16T14:30:14;5.50;80.90
4910;DHT22;2470;49.868;8.660;2024-01-16T14:32:44;5.60;82.50
4910;DHT22;2470;49.868;8.660;2024-01-16T14:35:11;5.50;82.60
4910;DHT22;2470;49.868;8.660;2024-01-16T14:37:38;5.40;83.50
4910;DHT22;2470;49.868;8.660;2024-01-16T14:40:05;5.30;85.10
4910;DHT22;2470;49.868;8.660;2024-01-16T14:42:41;5.20;86.20
4910;DHT22;2470;49.868;8.660;2024-01-16T14:45:08;5.10;87.20
4910;DHT22;2470;49.868;8.660;2024-01-16T14:47:37;5.00;87.80
4910;DHT22;2470;49.868;8.660;2024-01-16T14:50:04;5.10;88.80
4910;DHT22;2470;49.868;8.660;2024-01-16T14:52:30;5.10;88.90
4910;DHT22;2470;49.868;8.660;2024-01-16T14:55:01;4.90;89.40
4910;DHT22;2470;49.868;8.660;2024-01-16T14:57:27;4.80;90.00
4910;DHT22;2470;49.868;8.660;2024-01-16T14:59:53;4.80;90.70
4910;DHT22;2470;49.868;8.660;2024-01-16T15:02:18;4.80;91.00
4910;DHT22;2470;49.868;8.660;2024-01-16T15:04:46;4.70;91.30
4910;DHT22;2470;49.868;8.660;2024-01-16T15:07:12;4.70;91.40
4910;DHT22;2470;49.868;8.660;2024-01-16T15:09:37;4.70;91.30
4910;DHT22;2470;49.868;8.660;2024-01-16T15:12:06;4.60;91.10
4910;DHT22;2470;49.868;8.660;2024-01-16T15:14:35;4.40;91.30
4910;DHT22;2470;49.868;8.660;2024-01-16T15:17:01;4.30;91.70
4910;DHT22;2470;49.868;8.660;2024-01-16T15:19:28;4.20;92.00
4910;DHT22;2470;49.868;8.660;2024-01-16T15:21:53;4.10;92.40
4910;DHT22;2470;49.868;8.660;2024-01-16T15:24:19;3.90;92.00
4910;DHT22;2470;49.868;8.660;2024-01-16T15:26:55;3.70;91.60
4910;DHT22;2470;49.868;8.660;2024-01-16T15:29:23;3.40;92.00
4910;DHT22;2470;49.868;8.660;2024-01-16T15:31:49;3.20;92.60
4910;DHT22;2470;49.868;8.660;2024-01-16T15:34:17;3.20;93.30
4910;DHT22;2470;49.868;8.660;2024-01-16T15:36:43;3.10;93.50
4910;DHT22;2470;49.868;8.660;2024-01-16T15:39:08;3.00;93.80
4910;DHT22;2470;49.868;8.660;2024-01-16T15:41:34;2.90;94.20
4910;DHT22;2470;49.868;8.660;2024-01-16T15:43:59;2.90;94.60
4910;DHT22;2470;49.868;8.660;2024-01-16T15:46:26;2.90;94.70
4910;DHT22;2470;49.868;8.660;2024-01-16T15:48:52;2.90;95.00
4910;DHT22;2470;49.868;8.660;2024-01-16T15:51:17;2.90;95.40
4910;DHT22;2470;49.868;8.660;2024-01-16T15:53:43;2.90;95.70
4910;DHT22;2470;49.868;8.660;2024-01-16T15:56:09;2.90;96.00
4910;DHT22;2470;49.868;8.660;2024-01-16T15:58:34;2.90;96.20
4910;DHT22;2470;49.868;8.660;2024-01-16T16:01:00;2.90;96.40
4910;DHT22;2470;49.868;8.660;2024-01-16T16:03:26;2.90;96.60
4910;DHT22;2470;49.868;8.660;2024-01-16T16:05:51;2.80;96.70
4910;DHT22;2470;49.868;8.660;2024-01-16T16:08:18;2.80;96.90
4910;DHT22;2470;49.868;8.660;2024-01-16T16:10:44;2.80;97.20
4910;DHT22;2470;49.868;8.660;2024-01-16T16:13:11;2.70;97.40
4910;DHT22;2470;49.868;8.660;2024-01-16T16:15:39;2.70;97.60
4910;DHT22;2470;49.868;8.660;2024-01-16T16:18:05;2.70;97.80
4910;DHT22;2470;49.868;8.660;2024-01-16T16:20:32;2.60;98.10
4910;DHT22;2470;49.868;8.660;2024-01-16T16:22:58;2.60;98.40